sensor_id;sensor_type;location;lat;lon;timestamp;temperature;humidity
13186;DHT22;6658;53.080;7.428;2022-07-06T00:01:33;13.90;99.90
13186;DHT22;6658;53.080;7.428;2022-07-06T00:04:01;13.90;99.90
13186;DHT22;6658;53.080;7.428;2022-07-06T00:06:27;13.90;99.90
13186;DHT22;6658;53.080;7.428;2022-07-06T00:08:53;13.90;99.90
13186;DHT22;6658;53.080;7.428;2022-07-06T00:11:19;13.90;99.90
13186;DHT22;6658;53.080;7.428;2022-07-06T00:13:45;13.90;99.90
13186;DHT22;6658;53.080;7.428;2022-07-06T00:16:11;13.90;99.90
13186;DHT22;6658;53.080;7.428;2022-07-06T00:18:37;13.90;99.90
13186;DHT22;6658;53.080;7.428;2022-07-06T00:21:02;13.90;99.90
13186;DHT22;6658;53.080;7.428;2022-07-06T00:23:28;13.90;99.90
13186;DHT22;6658;53.080;7.428;2022-07-06T00:25:54;13.80;99.90
13186;DHT22;6658;53.080;7.428;2022-07-06T00:28:20;13.80;99.90
13186;DHT22;6658;53.080;7.428;2022-07-06T00:30:45;13.80;99.90
13186;DHT22;6658;53.080;7.428;2022-07-06T00:33:11;13.80;99.90
13186;DHT22;6658;53.080;7.428;2022-07-06T00:35:37;13.80;99.90
13186;DHT22;6658;53.080;7.428;2022-07-06T00:38:03;13.80;99.90
13186;DHT22;6658;53.080;7.428;2022-07-06T00:40:29;13.80;99.90
13186;DHT22;6658;53.080;7.428;2022-07-06T00:42:55;13.80;99.90
13186;DHT22;6658;53.080;7.428;2022-07-06T00:45:21;13.80;99.90
13186;DHT22;6658;53.080;7.428;2022-07-06T00:47:47;13.90;99.90
13186;DHT22;6658;53.080;7.428;2022-07-06T00:50:16;13.90;99.90
13186;DHT22;6658;53.080;7.428;2022-07-06T00:52:54;13.90;99.90
13186;DHT22;6658;53.080;7.428;2022-07-06T00:55:22;13.90;99.90
13186;DHT22;6658;53.080;7.428;2022-07-06T00:57:48;13.90;99.90
13186;DHT22;6658;53.080;7.428;2022-07-06T01:00:16;13.90;99.90
13186;DHT22;6658;53.080;7.428;2022-07-06T01:02:42;13.90;99.90
13186;DHT22;6658;53.080;7.428;2022-07-06T01:05:10;13.90;99.90
13186;DHT22;6658;53.080;7.428;2022-07-06T01:07:39;14.00;99.90
13186;DHT22;6658;53.080;7.428;2022-07-06T01:10:06;14.00;99.90
13186;DHT22;6658;53.080;7.428;2022-07-06T01:12:34;14.00;99.90
13186;DHT22;6658;53.080;7.428;2022-07-06T01:15:05;14.00;99.90
13186;DHT22;6658;53.080;7.428;2022-07-06T01:17:33;14.00;99.90
13186;DHT22;6658;53.080;7.428;2022-07-06T01:22:34;14.10;99.90
13186;DHT22;6658;53.080;7.428;2022-07-06T01:25:00;14.10;99.90
13186;DHT22;6658;53.080;7.428;2022-07-06T01:27:26;14.10;99.90
13186;DHT22;6658;53.080;7.428;2022-07-06T01:29:51;14.10;99.90
13186;DHT22;6658;53.080;7.428;2022-07-06T01:32:17;14.10;99.90
13186;DHT22;6658;53.080;7.428;2022-07-06T01:34:43;14.10;99.90
13186;DHT22;6658;53.080;7.428;2022-07-06T01:37:09;14.10;99.90
13186;DHT22;6658;53.080;7.428;2022-07-06T01:39:34;14.10;99.90
13186;DHT22;6658;53.080;7.428;2022-07-06T01:42:00;14.10;99.90
13186;DHT22;6658;53.080;7.428;2022-07-06T01:44:26;14.10;99.90
13186;DHT22;6658;53.080;7.428;2022-07-06T01:46:51;14.10;99.90
13186;DHT22;6658;53.080;7.428;2022-07-06T01:49:17;14.10;99.90
13186;DHT22;6658;53.080;7.428;2022-07-06T01:51:43;14.10;99.90
13186;DHT22;6658;53.080;7.428;2022-07-06T01:54:09;14.10;99.90
13186;DHT22;6658;53.080;7.428;2022-07-06T01:56:34;14.10;99.90
13186;DHT22;6658;53.080;7.428;2022-07-06T01:59:00;14.10;99.90
13186;DHT22;6658;53.080;7.428;2022-07-06T02:01:26;14.10;99.90
13186;DHT22;6658;53.080;7.428;2022-07-06T02:03:52;14.10;99.90
13186;DHT22;6658;53.080;7.428;2022-07-06T02:06:17;14.10;99.90
13186;DHT22;6658;53.080;7.428;2022-07-06T02:08:43;14.00;99.90
13186;DHT22;6658;53.080;7.428;2022-07-06T02:11:09;14.10;99.90
13186;DHT22;6658;53.080;7.428;2022-07-06T02:13:36;14.10;99.90
13186;DHT22;6658;53.080;7.428;2022-07-06T02:16:03;14.10;99.90
13186;DHT22;6658;53.080;7.428;2022-07-06T02:18:29;14.10;99.90
13186;DHT22;6658;53.080;7.428;2022-07-06T02:20:55;14.10;99.90
13186;DHT22;6658;53.080;7.428;2022-07-06T02:23:20;14.20;99.90
13186;DHT22;6658;53.080;7.428;2022-07-06T02:25:46;14.20;99.90
13186;DHT22;6658;53.080;7.428;2022-07-06T02:28:12;14.20;99.90
13186;DHT22;6658;53.080;7.428;2022-07-06T02:30:38;14.20;99.90
13186;DHT22;6658;53.080;7.428;2022-07-06T02:33:04;14.30;99.90
13186;DHT22;6658;53.080;7.428;2022-07-06T02:35:29;14.30;99.90
13186;DHT22;6658;53.080;7.428;2022-07-06T02:37:55;14.30;99.90
13186;DHT22;6658;53.080;7.428;2022-07-06T02:40:21;14.30;99.90
13186;DHT22;6658;53.080;7.428;2022-07-06T02:42:47;14.30;99.90
13186;DHT22;6658;53.080;7.428;2022-07-06T02:45:12;14.20;99.90
13186;DHT22;6658;53.080;7.428;2022-07-06T02:47:38;14.20;99.90
13186;DHT22;6658;53.080;7.428;2022-07-06T02:50:05;14.20;99.90
13186;DHT22;6658;53.080;7.428;2022-07-06T02:52:31;14.10;99.90
13186;DHT22;6658;53.080;7.428;2022-07-06T02:54:57;14.10;99.90
13186;DHT22;6658;53.080;7.428;2022-07-06T02:57:23;14.10;99.90
13186;DHT22;6658;53.080;7.428;2022-07-06T02:59:49;14.10;99.90
13186;DHT22;6658;53.080;7.428;2022-07-06T03:02:18;14.00;99.90
13186;DHT22;6658;53.080;7.428;2022-07-06T03:04:43;14.00;99.90
13186;DHT22;6658;53.080;7.428;2022-07-06T03:07:09;14.00;99.90
13186;DHT22;6658;53.080;7.428;2022-07-06T03:09:35;14.10;99.90
13186;DHT22;6658;53.080;7.428;2022-07-06T03:12:01;14.10;99.90
13186;DHT22;6658;53.080;7.428;2022-07-06T03:14:27;14.00;99.90
13186;DHT22;6658;53.080;7.428;2022-07-06T03:16:53;14.00;99.90
13186;DHT22;6658;53.080;7.428;2022-07-06T03:19:19;14.00;99.90
13186;DHT22;6658;53.080;7.428;2022-07-06T03:21:44;14.00;99.90
13186;DHT22;6658;53.080;7.428;2022-07-06T03:24:10;14.00;99.90
13186;DHT22;6658;53.080;7.428;2022-07-06T03:26:36;14.10;99.90
13186;DHT22;6658;53.080;7.428;2022-07-06T03:29:02;14.00;99.90
13186;DHT22;6658;53.080;7.428;2022-07-06T03:31:27;14.00;99.90
13186;DHT22;6658;53.080;7.428;2022-07-06T03:33:53;14.00;99.90
13186;DHT22;6658;53.080;7.428;2022-07-06T03:36:19;14.00;99.90
13186;DHT22;6658;53.080;7.428;2022-07-06T03:38:45;14.00;99.90
13186;DHT22;6658;53.080;7.428;2022-07-06T03:41:11;14.10;99.90
13186;DHT22;6658;53.080;7.428;2022-07-06T03:43:36;14.10;99.90
13186;DHT22;6658;53.080;7.428;2022-07-06T03:46:03;14.10;99.90
13186;DHT22;6658;53.080;7.428;2022-07-06T03:48:29;14.20;99.90
13186;DHT22;6658;53.080;7.428;2022-07-06T03:50:55;14.20;99.90
13186;DHT22;6658;53.080;7.428;2022-07-06T03:53:21;14.20;99.90
13186;DHT22;6658;53.080;7.428;2022-07-06T03:55:47;14.20;99.90
13186;DHT22;6658;53.080;7.428;2022-07-06T03:58:32;14.30;99.90
13186;DHT22;6658;53.080;7.428;2022-07-06T04:00:58;14.30;99.90
13186;DHT22;6658;53.080;7.428;2022-07-06T04:03:24;14.30;99.90
13186;DHT22;6658;53.080;7.428;2022-07-06T04:05:50;14.20;99.90
13186;DHT22;6658;53.080;7.428;2022-07-06T04:08:16;14.20;99.90
13186;DHT22;6658;53.080;7.428;2022-07-06T04:10:42;14.10;99.90
13186;DHT22;6658;53.080;7.428;2022-07-06T04:13:07;14.00;99.90
13186;DHT22;6658;53.080;7.428;2022-07-06T04:15:33;13.90;99.90
13186;DHT22;6658;53.080;7.428;2022-07-06T04:17:59;13.80;99.90
13186;DHT22;6658;53.080;7.428;2022-07-06T04:20:25;13.70;99.90
13186;DHT22;6658;53.080;7.428;2022-07-06T04:22:51;13.70;99.90
13186;DHT22;6658;53.080;7.428;2022-07-06T04:25:17;13.60;99.90
13186;DHT22;6658;53.080;7.428;2022-07-06T04:27:43;13.60;99.90
13186;DHT22;6658;53.080;7.428;2022-07-06T04:30:10;13.60;99.90
13186;DHT22;6658;53.080;7.428;2022-07-06T04:32:36;13.60;99.90
13186;DHT22;6658;53.080;7.428;2022-07-06T04:35:03;13.50;99.90
13186;DHT22;6658;53.080;7.428;2022-07-06T04:37:29;13.50;99.90
13186;DHT22;6658;53.080;7.428;2022-07-06T04:39:55;13.50;99.90
13186;DHT22;6658;53.080;7.428;2022-07-06T04:42:20;13.50;99.90
13186;DHT22;6658;53.080;7.428;2022-07-06T04:44:46;13.50;99.90
13186;DHT22;6658;53.080;7.428;2022-07-06T04:47:12;13.50;99.90
13186;DHT22;6658;53.080;7.428;2022-07-06T04:49:38;13.50;99.90
13186;DHT22;6658;53.080;7.428;2022-07-06T04:52:04;13.60;99.90
13186;DHT22;6658;53.080;7.428;2022-07-06T04:54:30;13.70;99.90
13186;DHT22;6658;53.080;7.428;2022-07-06T04:56:56;13.70;99.90
13186;DHT22;6658;53.080;7.428;2022-07-06T04:59:22;13.80;99.90
13186;DHT22;6658;53.080;7.428;2022-07-06T05:01:48;14.00;99.90
13186;DHT22;6658;53.080;7.428;2022-07-06T05:04:13;14.10;99.90
13186;DHT22;6658;53.080;7.428;2022-07-06T05:06:40;14.20;99.90
13186;DHT22;6658;53.080;7.428;2022-07-06T05:09:06;14.40;99.90
13186;DHT22;6658;53.080;7.428;2022-07-06T05:11:31;14.50;99.90
13186;DHT22;6658;53.080;7.428;2022-07-06T05:13:57;14.50;99.90
13186;DHT22;6658;53.080;7.428;2022-07-06T05:16:23;14.60;99.90
13186;DHT22;6658;53.080;7.428;2022-07-06T05:18:49;14.70;99.90
13186;DHT22;6658;53.080;7.428;2022-07-06T05:21:15;14.80;99.90
13186;DHT22;6658;53.080;7.428;2022-07-06T05:23:41;14.80;99.90
13186;DHT22;6658;53.080;7.428;2022-07-06T05:26:06;14.90;99.90
13186;DHT22;6658;53.080;7.428;2022-07-06T05:28:32;15.00;99.90
13186;DHT22;6658;53.080;7.428;2022-07-06T05:30:59;15.10;99.90
13186;DHT22;6658;53.080;7.428;2022-07-06T05:33:24;15.20;99.90
13186;DHT22;6658;53.080;7.428;2022-07-06T05:35:50;15.20;99.90
13186;DHT22;6658;53.080;7.428;2022-07-06T05:38:16;15.30;99.90
13186;DHT22;6658;53.080;7.428;2022-07-06T05:40:42;15.40;99.90
13186;DHT22;6658;53.080;7.428;2022-07-06T05:43:07;15.50;99.90
13186;DHT22;6658;53.080;7.428;2022-07-06T05:45:33;15.60;99.90
13186;DHT22;6658;53.080;7.428;2022-07-06T05:47:59;15.70;99.90
13186;DHT22;6658;53.080;7.428;2022-07-06T05:50:43;15.80;99.90
13186;DHT22;6658;53.080;7.428;2022-07-06T05:53:09;16.00;99.90
13186;DHT22;6658;53.080;7.428;2022-07-06T05:55:35;16.10;99.90
13186;DHT22;6658;53.080;7.428;2022-07-06T05:58:01;16.20;99.90
13186;DHT22;6658;53.080;7.428;2022-07-06T06:00:27;16.40;99.90
13186;DHT22;6658;53.080;7.428;2022-07-06T06:02:53;16.50;99.90
13186;DHT22;6658;53.080;7.428;2022-07-06T06:05:20;16.60;99.90
13186;DHT22;6658;53.080;7.428;2022-07-06T06:07:46;16.60;99.90
13186;DHT22;6658;53.080;7.428;2022-07-06T06:10:14;16.60;99.90
13186;DHT22;6658;53.080;7.428;2022-07-06T06:12:41;16.50;99.90
13186;DHT22;6658;53.080;7.428;2022-07-06T06:15:08;16.40;99.90
13186;DHT22;6658;53.080;7.428;2022-07-06T06:17:35;16.30;99.90
13186;DHT22;6658;53.080;7.428;2022-07-06T06:20:02;16.30;99.90
13186;DHT22;6658;53.080;7.428;2022-07-06T06:22:28;16.20;99.90
13186;DHT22;6658;53.080;7.428;2022-07-06T06:24:54;16.20;99.90
13186;DHT22;6658;53.080;7.428;2022-07-06T06:27:19;16.30;99.90
13186;DHT22;6658;53.080;7.428;2022-07-06T06:29:45;16.40;99.90
13186;DHT22;6658;53.080;7.428;2022-07-06T06:32:12;16.50;99.90
13186;DHT22;6658;53.080;7.428;2022-07-06T06:34:38;16.60;99.90
13186;DHT22;6658;53.080;7.428;2022-07-06T06:37:05;16.80;99.90
13186;DHT22;6658;53.080;7.428;2022-07-06T06:39:30;16.90;99.90
13186;DHT22;6658;53.080;7.428;2022-07-06T06:41:56;17.00;99.90
13186;DHT22;6658;53.080;7.428;2022-07-06T06:44:22;17.10;99.90
13186;DHT22;6658;53.080;7.428;2022-07-06T06:46:49;17.10;99.90
13186;DHT22;6658;53.080;7.428;2022-07-06T06:49:16;17.20;99.90
13186;DHT22;6658;53.080;7.428;2022-07-06T06:51:42;17.30;99.90
13186;DHT22;6658;53.080;7.428;2022-07-06T06:54:07;17.40;99.90
13186;DHT22;6658;53.080;7.428;2022-07-06T06:56:33;17.40;99.90
13186;DHT22;6658;53.080;7.428;2022-07-06T06:58:59;17.40;99.90
13186;DHT22;6658;53.080;7.428;2022-07-06T07:01:26;17.30;99.90
13186;DHT22;6658;53.080;7.428;2022-07-06T07:03:52;17.30;99.90
13186;DHT22;6658;53.080;7.428;2022-07-06T07:06:18;17.30;99.90
13186;DHT22;6658;53.080;7.428;2022-07-06T07:08:44;17.30;99.90
13186;DHT22;6658;53.080;7.428;2022-07-06T07:11:09;17.40;99.90
13186;DHT22;6658;53.080;7.428;2022-07-06T07:13:35;17.40;99.90
13186;DHT22;6658;53.080;7.428;2022-07-06T07:16:01;17.40;99.90
13186;DHT22;6658;53.080;7.428;2022-07-06T07:18:27;17.40;99.90
13186;DHT22;6658;53.080;7.428;2022-07-06T07:20:52;17.40;99.90
13186;DHT22;6658;53.080;7.428;2022-07-06T07:23:18;17.40;99.90
13186;DHT22;6658;53.080;7.428;2022-07-06T07:25:44;17.40;99.90
13186;DHT22;6658;53.080;7.428;2022-07-06T07:28:09;17.50;99.90
13186;DHT22;6658;53.080;7.428;2022-07-06T07:30:35;17.60;99.90
13186;DHT22;6658;53.080;7.428;2022-07-06T07:33:01;17.60;99.90
13186;DHT22;6658;53.080;7.428;2022-07-06T07:35:27;17.70;99.90
13186;DHT22;6658;53.080;7.428;2022-07-06T07:37:53;17.80;99.90
13186;DHT22;6658;53.080;7.428;2022-07-06T07:40:19;17.80;99.90
13186;DHT22;6658;53.080;7.428;2022-07-06T07:42:45;17.70;99.90
13186;DHT22;6658;53.080;7.428;2022-07-06T07:45:11;17.70;99.90
13186;DHT22;6658;53.080;7.428;2022-07-06T07:47:38;17.80;99.90
13186;DHT22;6658;53.080;7.428;2022-07-06T07:50:04;18.00;99.90
13186;DHT22;6658;53.080;7.428;2022-07-06T07:52:30;18.00;99.90
13186;DHT22;6658;53.080;7.428;2022-07-06T07:54:56;18.20;99.90
13186;DHT22;6658;53.080;7.428;2022-07-06T07:57:22;18.30;99.90
13186;DHT22;6658;53.080;7.428;2022-07-06T07:59:48;18.20;99.90
13186;DHT22;6658;53.080;7.428;2022-07-06T08:02:14;18.10;99.90
13186;DHT22;6658;53.080;7.428;2022-07-06T08:04:40;17.90;99.90
13186;DHT22;6658;53.080;7.428;2022-07-06T08:07:06;17.60;99.90
13186;DHT22;6658;53.080;7.428;2022-07-06T08:09:32;17.30;99.90
13186;DHT22;6658;53.080;7.428;2022-07-06T08:11:58;17.20;99.90
13186;DHT22;6658;53.080;7.428;2022-07-06T08:14:24;17.10;99.90
13186;DHT22;6658;53.080;7.428;2022-07-06T08:16:51;17.00;99.90
13186;DHT22;6658;53.080;7.428;2022-07-06T08:19:17;16.90;99.90
13186;DHT22;6658;53.080;7.428;2022-07-06T08:21:43;16.80;99.90
13186;DHT22;6658;53.080;7.428;2022-07-06T08:24:09;16.80;99.90
13186;DHT22;6658;53.080;7.428;2022-07-06T08:26:35;16.80;99.90
13186;DHT22;6658;53.080;7.428;2022-07-06T08:29:01;17.00;99.90
13186;DHT22;6658;53.080;7.428;2022-07-06T08:31:27;17.20;99.90
13186;DHT22;6658;53.080;7.428;2022-07-06T08:33:53;17.50;99.90
13186;DHT22;6658;53.080;7.428;2022-07-06T08:36:23;17.80;99.90
13186;DHT22;6658;53.080;7.428;2022-07-06T08:38:49;18.00;99.90
13186;DHT22;6658;53.080;7.428;2022-07-06T08:41:16;18.00;99.90
13186;DHT22;6658;53.080;7.428;2022-07-06T08:43:42;18.00;99.90
13186;DHT22;6658;53.080;7.428;2022-07-06T08:46:08;18.10;99.90
13186;DHT22;6658;53.080;7.428;2022-07-06T08:48:36;18.30;99.90
13186;DHT22;6658;53.080;7.428;2022-07-06T08:51:04;18.60;99.90
13186;DHT22;6658;53.080;7.428;2022-07-06T08:53:30;18.90;99.90
13186;DHT22;6658;53.080;7.428;2022-07-06T08:55:56;19.00;99.90
13186;DHT22;6658;53.080;7.428;2022-07-06T08:58:25;18.80;99.90
13186;DHT22;6658;53.080;7.428;2022-07-06T09:00:52;18.90;99.90
13186;DHT22;6658;53.080;7.428;2022-07-06T09:03:19;19.00;99.90
13186;DHT22;6658;53.080;7.428;2022-07-06T09:05:46;19.30;99.90
13186;DHT22;6658;53.080;7.428;2022-07-06T09:08:12;19.50;99.90
13186;DHT22;6658;53.080;7.428;2022-07-06T09:10:38;19.60;99.90
13186;DHT22;6658;53.080;7.428;2022-07-06T09:13:05;19.60;99.90
13186;DHT22;6658;53.080;7.428;2022-07-06T09:15:33;20.00;99.90
13186;DHT22;6658;53.080;7.428;2022-07-06T09:17:59;20.30;99.90
13186;DHT22;6658;53.080;7.428;2022-07-06T09:20:25;20.30;99.90
13186;DHT22;6658;53.080;7.428;2022-07-06T09:22:57;20.10;99.90
13186;DHT22;6658;53.080;7.428;2022-07-06T09:25:25;19.80;99.90
13186;DHT22;6658;53.080;7.428;2022-07-06T09:27:51;19.70;99.90
13186;DHT22;6658;53.080;7.428;2022-07-06T09:30:21;19.70;99.90
13186;DHT22;6658;53.080;7.428;2022-07-06T09:32:49;19.80;99.90
13186;DHT22;6658;53.080;7.428;2022-07-06T09:35:39;20.20;99.90
13186;DHT22;6658;53.080;7.428;2022-07-06T09:38:09;20.90;99.90
13186;DHT22;6658;53.080;7.428;2022-07-06T09:40:42;21.40;99.90
13186;DHT22;6658;53.080;7.428;2022-07-06T09:43:22;22.00;99.90
13186;DHT22;6658;53.080;7.428;2022-07-06T09:45:56;22.70;99.90
13186;DHT22;6658;53.080;7.428;2022-07-06T09:48:24;23.50;99.90
13186;DHT22;6658;53.080;7.428;2022-07-06T09:50:53;23.40;99.90
13186;DHT22;6658;53.080;7.428;2022-07-06T09:53:21;23.70;99.80
13186;DHT22;6658;53.080;7.428;2022-07-06T09:55:48;24.00;98.10
13186;DHT22;6658;53.080;7.428;2022-07-06T09:58:18;23.10;98.40
13186;DHT22;6658;53.080;7.428;2022-07-06T10:00:45;22.60;99.90
13186;DHT22;6658;53.080;7.428;2022-07-06T10:03:12;22.50;99.90
13186;DHT22;6658;53.080;7.428;2022-07-06T10:05:40;22.50;99.90
13186;DHT22;6658;53.080;7.428;2022-07-06T10:08:07;22.10;98.90
13186;DHT22;6658;53.080;7.428;2022-07-06T10:10:38;21.30;99.60
13186;DHT22;6658;53.080;7.428;2022-07-06T10:13:05;20.60;99.80
13186;DHT22;6658;53.080;7.428;2022-07-06T10:15:32;20.20;99.90
13186;DHT22;6658;53.080;7.428;2022-07-06T10:18:00;20.10;99.90
13186;DHT22;6658;53.080;7.428;2022-07-06T10:20:31;20.20;99.90
13186;DHT22;6658;53.080;7.428;2022-07-06T10:23:00;20.50;99.90
13186;DHT22;6658;53.080;7.428;2022-07-06T10:25:27;21.30;99.60
13186;DHT22;6658;53.080;7.428;2022-07-06T10:27:54;22.40;97.60
13186;DHT22;6658;53.080;7.428;2022-07-06T10:30:20;23.20;95.70
13186;DHT22;6658;53.080;7.428;2022-07-06T10:32:47;24.00;94.50
13186;DHT22;6658;53.080;7.428;2022-07-06T10:35:14;24.30;92.80
13186;DHT22;6658;53.080;7.428;2022-07-06T10:37:40;24.30;92.80
13186;DHT22;6658;53.080;7.428;2022-07-06T10:40:07;24.10;93.80
13186;DHT22;6658;53.080;7.428;2022-07-06T10:43:02;24.50;93.50
13186;DHT22;6658;53.080;7.428;2022-07-06T10:53:13;23.50;92.60
13186;DHT22;6658;53.080;7.428;2022-07-06T10:55:46;22.70;93.80
13186;DHT22;6658;53.080;7.428;2022-07-06T10:58:14;22.40;94.60
13186;DHT22;6658;53.080;7.428;2022-07-06T11:00:50;22.70;93.50
13186;DHT22;6658;53.080;7.428;2022-07-06T11:06:19;24.00;91.60
13186;DHT22;6658;53.080;7.428;2022-07-06T11:14:00;23.10;91.50
13186;DHT22;6658;53.080;7.428;2022-07-06T11:16:37;23.50;91.30
13186;DHT22;6658;53.080;7.428;2022-07-06T11:19:15;24.20;91.10
13186;DHT22;6658;53.080;7.428;2022-07-06T11:21:55;25.50;87.50
13186;DHT22;6658;53.080;7.428;2022-07-06T11:24:32;24.90;88.20
13186;DHT22;6658;53.080;7.428;2022-07-06T11:26:59;24.90;87.80
13186;DHT22;6658;53.080;7.428;2022-07-06T11:29:26;25.30;87.80
13186;DHT22;6658;53.080;7.428;2022-07-06T11:31:55;26.20;86.20
13186;DHT22;6658;53.080;7.428;2022-07-06T11:34:30;26.60;82.20
13186;DHT22;6658;53.080;7.428;2022-07-06T11:36:58;26.90;82.50
13186;DHT22;6658;53.080;7.428;2022-07-06T11:39:28;26.40;84.10
13186;DHT22;6658;53.080;7.428;2022-07-06T11:41:57;25.30;85.10
13186;DHT22;6658;53.080;7.428;2022-07-06T11:44:23;24.10;89.40
13186;DHT22;6658;53.080;7.428;2022-07-06T11:46:49;23.40;91.00
13186;DHT22;6658;53.080;7.428;2022-07-06T11:49:15;22.60;92.50
13186;DHT22;6658;53.080;7.428;2022-07-06T11:51:42;23.50;92.60
13186;DHT22;6658;53.080;7.428;2022-07-06T11:54:19;23.90;92.30
13186;DHT22;6658;53.080;7.428;2022-07-06T11:59:15;23.50;92.30
13186;DHT22;6658;53.080;7.428;2022-07-06T12:01:42;22.90;92.90
13186;DHT22;6658;53.080;7.428;2022-07-06T12:04:10;22.30;93.70
13186;DHT22;6658;53.080;7.428;2022-07-06T12:06:36;21.80;95.10
13186;DHT22;6658;53.080;7.428;2022-07-06T12:09:02;21.40;95.90
13186;DHT22;6658;53.080;7.428;2022-07-06T12:11:33;21.20;96.20
13186;DHT22;6658;53.080;7.428;2022-07-06T12:14:18;21.30;98.20
13186;DHT22;6658;53.080;7.428;2022-07-06T12:16:46;23.10;95.10
13186;DHT22;6658;53.080;7.428;2022-07-06T12:19:12;23.80;92.50
13186;DHT22;6658;53.080;7.428;2022-07-06T12:21:49;23.50;92.40
13186;DHT22;6658;53.080;7.428;2022-07-06T12:24:23;22.90;93.30
13186;DHT22;6658;53.080;7.428;2022-07-06T12:26:50;22.30;94.50
13186;DHT22;6658;53.080;7.428;2022-07-06T12:29:17;21.90;95.70
13186;DHT22;6658;53.080;7.428;2022-07-06T12:31:48;21.50;96.40
13186;DHT22;6658;53.080;7.428;2022-07-06T12:34:17;21.30;95.90
13186;DHT22;6658;53.080;7.428;2022-07-06T12:36:45;21.00;96.60
13186;DHT22;6658;53.080;7.428;2022-07-06T12:39:16;21.10;96.70
13186;DHT22;6658;53.080;7.428;2022-07-06T12:41:51;21.60;96.70
13186;DHT22;6658;53.080;7.428;2022-07-06T12:44:19;22.50;96.90
13186;DHT22;6658;53.080;7.428;2022-07-06T12:46:45;23.10;93.90
13186;DHT22;6658;53.080;7.428;2022-07-06T12:49:21;23.20;94.10
13186;DHT22;6658;53.080;7.428;2022-07-06T12:54:25;22.90;94.30
13186;DHT22;6658;53.080;7.428;2022-07-06T12:57:14;22.90;94.60
13186;DHT22;6658;53.080;7.428;2022-07-06T13:00:01;22.60;93.50
13186;DHT22;6658;53.080;7.428;2022-07-06T13:02:34;22.00;94.60
13186;DHT22;6658;53.080;7.428;2022-07-06T13:07:31;21.10;96.40
13186;DHT22;6658;53.080;7.428;2022-07-06T13:09:58;20.80;97.40
13186;DHT22;6658;53.080;7.428;2022-07-06T13:12:24;20.60;97.60
13186;DHT22;6658;53.080;7.428;2022-07-06T13:14:51;20.60;97.90
13186;DHT22;6658;53.080;7.428;2022-07-06T13:17:17;20.60;98.20
13186;DHT22;6658;53.080;7.428;2022-07-06T13:19:43;20.80;98.30
13186;DHT22;6658;53.080;7.428;2022-07-06T13:22:09;21.10;98.40
13186;DHT22;6658;53.080;7.428;2022-07-06T13:24:35;21.50;97.20
13186;DHT22;6658;53.080;7.428;2022-07-06T13:27:01;21.60;96.40
13186;DHT22;6658;53.080;7.428;2022-07-06T13:29:27;21.70;95.30
13186;DHT22;6658;53.080;7.428;2022-07-06T13:31:52;21.90;96.30
13186;DHT22;6658;53.080;7.428;2022-07-06T13:34:18;22.00;95.30
13186;DHT22;6658;53.080;7.428;2022-07-06T13:36:44;22.00;96.50
13186;DHT22;6658;53.080;7.428;2022-07-06T13:39:10;22.00;96.40
13186;DHT22;6658;53.080;7.428;2022-07-06T13:41:36;22.00;96.50
13186;DHT22;6658;53.080;7.428;2022-07-06T13:44:02;22.00;96.70
13186;DHT22;6658;53.080;7.428;2022-07-06T13:46:29;22.10;96.30
13186;DHT22;6658;53.080;7.428;2022-07-06T13:48:56;22.30;95.80
13186;DHT22;6658;53.080;7.428;2022-07-06T13:51:23;22.40;96.70
13186;DHT22;6658;53.080;7.428;2022-07-06T13:53:50;22.50;95.90
13186;DHT22;6658;53.080;7.428;2022-07-06T13:56:16;22.80;96.80
13186;DHT22;6658;53.080;7.428;2022-07-06T13:58:42;23.20;96.90
13186;DHT22;6658;53.080;7.428;2022-07-06T14:01:09;23.50;94.20
13186;DHT22;6658;53.080;7.428;2022-07-06T14:03:34;23.50;94.60
13186;DHT22;6658;53.080;7.428;2022-07-06T14:06:03;23.50;94.00
13186;DHT22;6658;53.080;7.428;2022-07-06T14:08:30;23.50;93.80
13186;DHT22;6658;53.080;7.428;2022-07-06T14:10:56;23.20;95.20
13186;DHT22;6658;53.080;7.428;2022-07-06T14:13:22;23.10;95.00
13186;DHT22;6658;53.080;7.428;2022-07-06T14:15:48;22.80;95.50
13186;DHT22;6658;53.080;7.428;2022-07-06T14:18:15;22.40;94.40
13186;DHT22;6658;53.080;7.428;2022-07-06T14:20:43;22.20;95.20
13186;DHT22;6658;53.080;7.428;2022-07-06T14:23:10;22.10;94.80
13186;DHT22;6658;53.080;7.428;2022-07-06T14:25:37;22.00;95.20
13186;DHT22;6658;53.080;7.428;2022-07-06T14:28:04;21.80;95.20
13186;DHT22;6658;53.080;7.428;2022-07-06T14:30:29;21.80;95.30
13186;DHT22;6658;53.080;7.428;2022-07-06T14:32:56;21.70;95.60
13186;DHT22;6658;53.080;7.428;2022-07-06T14:35:21;21.50;95.20
13186;DHT22;6658;53.080;7.428;2022-07-06T14:37:48;21.30;95.90
13186;DHT22;6658;53.080;7.428;2022-07-06T14:40:14;21.20;97.10
13186;DHT22;6658;53.080;7.428;2022-07-06T14:42:40;21.10;96.80
13186;DHT22;6658;53.080;7.428;2022-07-06T14:45:06;20.90;97.00
13186;DHT22;6658;53.080;7.428;2022-07-06T14:47:32;20.90;96.80
13186;DHT22;6658;53.080;7.428;2022-07-06T14:49:58;20.90;96.30
13186;DHT22;6658;53.080;7.428;2022-07-06T14:52:23;20.90;95.90
13186;DHT22;6658;53.080;7.428;2022-07-06T14:54:49;20.80;96.10
13186;DHT22;6658;53.080;7.428;2022-07-06T14:57:15;20.70;96.50
13186;DHT22;6658;53.080;7.428;2022-07-06T14:59:42;20.60;96.60
13186;DHT22;6658;53.080;7.428;2022-07-06T15:02:09;20.50;96.80
13186;DHT22;6658;53.080;7.428;2022-07-06T15:04:35;20.30;97.20
13186;DHT22;6658;53.080;7.428;2022-07-06T15:07:04;20.20;97.80
13186;DHT22;6658;53.080;7.428;2022-07-06T15:09:29;20.20;98.00
13186;DHT22;6658;53.080;7.428;2022-07-06T15:11:56;20.10;98.00
13186;DHT22;6658;53.080;7.428;2022-07-06T15:14:22;20.00;98.20
13186;DHT22;6658;53.080;7.428;2022-07-06T15:16:48;20.00;98.30
13186;DHT22;6658;53.080;7.428;2022-07-06T15:19:14;19.90;98.90
13186;DHT22;6658;53.080;7.428;2022-07-06T15:21:41;19.80;98.50
13186;DHT22;6658;53.080;7.428;2022-07-06T15:24:07;19.70;98.60
13186;DHT22;6658;53.080;7.428;2022-07-06T15:26:32;19.70;98.40
13186;DHT22;6658;53.080;7.428;2022-07-06T15:28:58;19.70;98.70
13186;DHT22;6658;53.080;7.428;2022-07-06T15:31:24;19.70;98.30
13186;DHT22;6658;53.080;7.428;2022-07-06T15:33:50;19.70;97.80
13186;DHT22;6658;53.080;7.428;2022-07-06T15:36:15;19.60;98.20
13186;DHT22;6658;53.080;7.428;2022-07-06T15:38:41;19.60;98.70
13186;DHT22;6658;53.080;7.428;2022-07-06T15:41:07;19.60;98.40
13186;DHT22;6658;53.080;7.428;2022-07-06T15:43:33;19.60;99.20
13186;DHT22;6658;53.080;7.428;2022-07-06T15:46:03;19.60;98.20
13186;DHT22;6658;53.080;7.428;2022-07-06T15:48:30;19.50;98.50
13186;DHT22;6658;53.080;7.428;2022-07-06T15:50:58;19.50;98.40
13186;DHT22;6658;53.080;7.428;2022-07-06T15:53:24;19.60;98.60
13186;DHT22;6658;53.080;7.428;2022-07-06T15:55:50;19.50;98.60
13186;DHT22;6658;53.080;7.428;2022-07-06T15:58:17;19.60;98.60
13186;DHT22;6658;53.080;7.428;2022-07-06T16:00:43;19.60;99.00
13186;DHT22;6658;53.080;7.428;2022-07-06T16:03:08;19.60;99.50
13186;DHT22;6658;53.080;7.428;2022-07-06T16:05:34;19.60;99.60
13186;DHT22;6658;53.080;7.428;2022-07-06T16:08:00;19.60;99.80
13186;DHT22;6658;53.080;7.428;2022-07-06T16:10:26;19.60;99.90